sensor_id;sensor_type;location;lat;lon;timestamp;P1;durP1;ratioP1;P2;durP2;ratioP2
11386;SDS011;5748;53.102;8.456;2023-08-20T00:02:11;1.90;;;1.70;;
11386;SDS011;5748;53.102;8.456;2023-08-20T00:04:38;1.77;;;1.60;;
11386;SDS011;5748;53.102;8.456;2023-08-20T00:07:08;2.83;;;1.50;;
11386;SDS011;5748;53.102;8.456;2023-08-20T00:09:36;1.50;;;1.40;;
11386;SDS011;5748;53.102;8.456;2023-08-20T00:12:03;1.40;;;1.30;;
11386;SDS011;5748;53.102;8.456;2023-08-20T00:17:23;1.50;;;1.40;;
11386;SDS011;5748;53.102;8.456;2023-08-20T00:19:52;2.07;;;1.70;;
11386;SDS011;5748;53.102;8.456;2023-08-20T00:22:21;1.40;;;1.30;;
11386;SDS011;5748;53.102;8.456;2023-08-20T00:24:49;1.23;;;1.13;;
11386;SDS011;5748;53.102;8.456;2023-08-20T00:27:17;1.40;;;1.30;;
11386;SDS011;5748;53.102;8.456;2023-08-20T00:29:45;1.70;;;1.60;;
11386;SDS011;5748;53.102;8.456;2023-08-20T00:32:14;1.50;;;1.40;;
11386;SDS011;5748;53.102;8.456;2023-08-20T00:34:41;1.40;;;1.30;;
11386;SDS011;5748;53.102;8.456;2023-08-20T00:37:08;1.40;;;1.30;;
11386;SDS011;5748;53.102;8.456;2023-08-20T00:39:35;1.70;;;1.60;;
11386;SDS011;5748;53.102;8.456;2023-08-20T00:42:02;1.50;;;1.40;;
11386;SDS011;5748;53.102;8.456;2023-08-20T00:44:30;1.43;;;1.33;;
11386;SDS011;5748;53.102;8.456;2023-08-20T00:46:57;1.70;;;1.60;;
11386;SDS011;5748;53.102;8.456;2023-08-20T00:49:27;1.60;;;1.50;;
11386;SDS011;5748;53.102;8.456;2023-08-20T00:51:54;1.40;;;1.30;;
11386;SDS011;5748;53.102;8.456;2023-08-20T00:54:21;1.50;;;1.40;;
11386;SDS011;5748;53.102;8.456;2023-08-20T00:56:49;2.07;;;1.50;;
11386;SDS011;5748;53.102;8.456;2023-08-20T00:59:16;1.67;;;1.43;;
11386;SDS011;5748;53.102;8.456;2023-08-20T01:01:43;1.63;;;1.53;;
11386;SDS011;5748;53.102;8.456;2023-08-20T01:04:10;1.60;;;1.50;;
11386;SDS011;5748;53.102;8.456;2023-08-20T01:06:46;1.87;;;1.50;;
11386;SDS011;5748;53.102;8.456;2023-08-20T01:09:21;1.40;;;1.30;;
11386;SDS011;5748;53.102;8.456;2023-08-20T01:11:58;1.60;;;1.50;;
11386;SDS011;5748;53.102;8.456;2023-08-20T01:14:29;1.40;;;1.30;;
11386;SDS011;5748;53.102;8.456;2023-08-20T01:16:56;1.50;;;1.40;;
11386;SDS011;5748;53.102;8.456;2023-08-20T01:19:23;1.53;;;1.20;;
11386;SDS011;5748;53.102;8.456;2023-08-20T01:21:56;1.30;;;1.20;;
11386;SDS011;5748;53.102;8.456;2023-08-20T01:24:46;1.37;;;1.27;;
11386;SDS011;5748;53.102;8.456;2023-08-20T01:27:27;1.83;;;1.20;;
11386;SDS011;5748;53.102;8.456;2023-08-20T01:30:09;1.37;;;1.27;;
11386;SDS011;5748;53.102;8.456;2023-08-20T01:32:36;1.50;;;1.40;;
11386;SDS011;5748;53.102;8.456;2023-08-20T01:35:07;1.40;;;1.30;;
11386;SDS011;5748;53.102;8.456;2023-08-20T01:37:37;1.50;;;1.40;;
11386;SDS011;5748;53.102;8.456;2023-08-20T01:40:05;1.40;;;1.30;;
11386;SDS011;5748;53.102;8.456;2023-08-20T01:42:35;2.47;;;1.40;;
11386;SDS011;5748;53.102;8.456;2023-08-20T01:45:02;1.30;;;1.20;;
11386;SDS011;5748;53.102;8.456;2023-08-20T01:47:32;1.40;;;1.30;;
11386;SDS011;5748;53.102;8.456;2023-08-20T01:49:59;1.10;;;1.10;;
11386;SDS011;5748;53.102;8.456;2023-08-20T01:52:26;1.40;;;1.30;;
11386;SDS011;5748;53.102;8.456;2023-08-20T01:54:54;1.20;;;1.10;;
11386;SDS011;5748;53.102;8.456;2023-08-20T01:57:21;1.40;;;1.30;;
11386;SDS011;5748;53.102;8.456;2023-08-20T01:59:48;1.20;;;1.10;;
11386;SDS011;5748;53.102;8.456;2023-08-20T02:02:14;1.30;;;1.20;;
11386;SDS011;5748;53.102;8.456;2023-08-20T02:04:43;1.10;;;1.10;;
11386;SDS011;5748;53.102;8.456;2023-08-20T02:07:09;1.63;;;1.13;;
11386;SDS011;5748;53.102;8.456;2023-08-20T02:09:36;1.30;;;1.20;;
11386;SDS011;5748;53.102;8.456;2023-08-20T02:12:03;1.27;;;1.20;;
11386;SDS011;5748;53.102;8.456;2023-08-20T02:14:31;1.03;;;1.03;;
11386;SDS011;5748;53.102;8.456;2023-08-20T02:16:59;1.40;;;1.30;;
11386;SDS011;5748;53.102;8.456;2023-08-20T02:19:26;1.10;;;1.10;;
11386;SDS011;5748;53.102;8.456;2023-08-20T02:21:55;1.03;;;1.03;;
11386;SDS011;5748;53.102;8.456;2023-08-20T02:24:22;1.30;;;1.20;;
11386;SDS011;5748;53.102;8.456;2023-08-20T02:26:49;1.20;;;1.10;;
11386;SDS011;5748;53.102;8.456;2023-08-20T02:29:16;1.20;;;1.10;;
11386;SDS011;5748;53.102;8.456;2023-08-20T02:31:42;1.27;;;1.17;;
11386;SDS011;5748;53.102;8.456;2023-08-20T02:34:09;1.10;;;1.10;;
11386;SDS011;5748;53.102;8.456;2023-08-20T02:36:36;1.37;;;1.10;;
11386;SDS011;5748;53.102;8.456;2023-08-20T02:39:05;1.30;;;1.20;;
11386;SDS011;5748;53.102;8.456;2023-08-20T02:41:32;1.27;;;1.10;;
11386;SDS011;5748;53.102;8.456;2023-08-20T02:44:00;1.23;;;1.13;;
11386;SDS011;5748;53.102;8.456;2023-08-20T02:46:27;1.30;;;1.20;;
11386;SDS011;5748;53.102;8.456;2023-08-20T02:48:54;1.37;;;1.20;;
11386;SDS011;5748;53.102;8.456;2023-08-20T02:51:21;1.00;;;1.00;;
11386;SDS011;5748;53.102;8.456;2023-08-20T02:53:48;1.27;;;1.03;;
11386;SDS011;5748;53.102;8.456;2023-08-20T02:56:16;1.47;;;1.20;;
11386;SDS011;5748;53.102;8.456;2023-08-20T02:58:44;1.00;;;1.00;;
11386;SDS011;5748;53.102;8.456;2023-08-20T03:01:17;1.07;;;1.07;;
11386;SDS011;5748;53.102;8.456;2023-08-20T03:03:45;1.20;;;1.10;;
11386;SDS011;5748;53.102;8.456;2023-08-20T03:06:12;1.00;;;1.00;;
11386;SDS011;5748;53.102;8.456;2023-08-20T03:08:39;1.20;;;1.10;;
11386;SDS011;5748;53.102;8.456;2023-08-20T03:11:05;1.33;;;1.10;;
11386;SDS011;5748;53.102;8.456;2023-08-20T03:13:34;1.30;;;1.20;;
11386;SDS011;5748;53.102;8.456;2023-08-20T03:16:01;1.20;;;1.10;;
11386;SDS011;5748;53.102;8.456;2023-08-20T03:18:28;1.40;;;1.30;;
11386;SDS011;5748;53.102;8.456;2023-08-20T03:20:55;1.40;;;1.10;;
11386;SDS011;5748;53.102;8.456;2023-08-20T03:23:23;0.90;;;0.90;;
11386;SDS011;5748;53.102;8.456;2023-08-20T03:25:50;1.07;;;1.07;;
11386;SDS011;5748;53.102;8.456;2023-08-20T03:28:17;1.17;;;1.07;;
11386;SDS011;5748;53.102;8.456;2023-08-20T03:30:46;1.10;;;1.07;;
11386;SDS011;5748;53.102;8.456;2023-08-20T03:33:13;1.00;;;1.00;;
11386;SDS011;5748;53.102;8.456;2023-08-20T03:35:42;0.90;;;0.90;;
11386;SDS011;5748;53.102;8.456;2023-08-20T03:38:09;0.90;;;0.90;;
11386;SDS011;5748;53.102;8.456;2023-08-20T03:40:35;2.30;;;1.10;;
11386;SDS011;5748;53.102;8.456;2023-08-20T03:43:02;1.10;;;1.00;;
11386;SDS011;5748;53.102;8.456;2023-08-20T03:45:30;1.20;;;1.10;;
11386;SDS011;5748;53.102;8.456;2023-08-20T03:47:58;0.90;;;0.90;;
11386;SDS011;5748;53.102;8.456;2023-08-20T03:50:25;1.23;;;1.13;;
11386;SDS011;5748;53.102;8.456;2023-08-20T03:52:52;1.27;;;1.17;;
11386;SDS011;5748;53.102;8.456;2023-08-20T03:55:19;1.53;;;1.20;;
11386;SDS011;5748;53.102;8.456;2023-08-20T03:57:46;1.00;;;1.00;;
11386;SDS011;5748;53.102;8.456;2023-08-20T04:00:13;1.43;;;1.33;;
11386;SDS011;5748;53.102;8.456;2023-08-20T04:02:40;1.23;;;1.13;;
11386;SDS011;5748;53.102;8.456;2023-08-20T04:05:09;1.20;;;1.10;;
11386;SDS011;5748;53.102;8.456;2023-08-20T04:07:35;1.67;;;1.27;;
11386;SDS011;5748;53.102;8.456;2023-08-20T04:10:02;1.13;;;1.03;;
11386;SDS011;5748;53.102;8.456;2023-08-20T04:12:30;1.40;;;1.30;;
11386;SDS011;5748;53.102;8.456;2023-08-20T04:14:57;1.40;;;1.30;;
11386;SDS011;5748;53.102;8.456;2023-08-20T04:17:24;1.30;;;1.20;;
11386;SDS011;5748;53.102;8.456;2023-08-20T04:19:51;1.30;;;1.20;;
11386;SDS011;5748;53.102;8.456;2023-08-20T04:22:19;1.43;;;1.33;;
11386;SDS011;5748;53.102;8.456;2023-08-20T04:24:46;1.47;;;1.37;;
11386;SDS011;5748;53.102;8.456;2023-08-20T04:27:13;1.60;;;1.50;;
11386;SDS011;5748;53.102;8.456;2023-08-20T04:29:40;1.87;;;1.77;;
11386;SDS011;5748;53.102;8.456;2023-08-20T04:32:07;1.90;;;1.80;;
11386;SDS011;5748;53.102;8.456;2023-08-20T04:34:34;1.83;;;1.70;;
11386;SDS011;5748;53.102;8.456;2023-08-20T04:37:01;1.67;;;1.57;;
11386;SDS011;5748;53.102;8.456;2023-08-20T04:39:29;1.70;;;1.60;;
11386;SDS011;5748;53.102;8.456;2023-08-20T04:41:56;1.87;;;1.57;;
11386;SDS011;5748;53.102;8.456;2023-08-20T04:44:25;1.70;;;1.60;;
11386;SDS011;5748;53.102;8.456;2023-08-20T04:46:52;1.70;;;1.60;;
11386;SDS011;5748;53.102;8.456;2023-08-20T04:49:19;1.80;;;1.70;;
11386;SDS011;5748;53.102;8.456;2023-08-20T04:51:45;1.50;;;1.40;;
11386;SDS011;5748;53.102;8.456;2023-08-20T04:54:12;1.57;;;1.47;;
11386;SDS011;5748;53.102;8.456;2023-08-20T04:56:41;1.50;;;1.40;;
11386;SDS011;5748;53.102;8.456;2023-08-20T04:59:07;1.40;;;1.30;;
11386;SDS011;5748;53.102;8.456;2023-08-20T05:01:35;1.50;;;1.40;;
11386;SDS011;5748;53.102;8.456;2023-08-20T05:04:01;1.60;;;1.50;;
11386;SDS011;5748;53.102;8.456;2023-08-20T05:06:29;1.60;;;1.50;;
11386;SDS011;5748;53.102;8.456;2023-08-20T05:08:56;1.27;;;1.17;;
11386;SDS011;5748;53.102;8.456;2023-08-20T05:11:23;1.47;;;1.37;;
11386;SDS011;5748;53.102;8.456;2023-08-20T05:13:51;1.50;;;1.40;;
11386;SDS011;5748;53.102;8.456;2023-08-20T05:16:21;1.50;;;1.40;;
11386;SDS011;5748;53.102;8.456;2023-08-20T05:18:48;1.90;;;1.40;;
11386;SDS011;5748;53.102;8.456;2023-08-20T05:21:15;1.40;;;1.30;;
11386;SDS011;5748;53.102;8.456;2023-08-20T05:23:42;1.50;;;1.40;;
11386;SDS011;5748;53.102;8.456;2023-08-20T05:26:08;1.53;;;1.43;;
11386;SDS011;5748;53.102;8.456;2023-08-20T05:28:36;1.50;;;1.40;;
11386;SDS011;5748;53.102;8.456;2023-08-20T05:31:04;1.40;;;1.30;;
11386;SDS011;5748;53.102;8.456;2023-08-20T05:33:31;1.67;;;1.20;;
11386;SDS011;5748;53.102;8.456;2023-08-20T05:35:58;1.50;;;1.40;;
11386;SDS011;5748;53.102;8.456;2023-08-20T05:38:26;1.53;;;1.43;;
11386;SDS011;5748;53.102;8.456;2023-08-20T05:40:52;1.70;;;1.60;;
11386;SDS011;5748;53.102;8.456;2023-08-20T05:43:19;1.60;;;1.50;;
11386;SDS011;5748;53.102;8.456;2023-08-20T05:45:46;1.80;;;1.60;;
11386;SDS011;5748;53.102;8.456;2023-08-20T05:48:14;1.57;;;1.47;;
11386;SDS011;5748;53.102;8.456;2023-08-20T05:50:41;3.80;;;1.90;;
11386;SDS011;5748;53.102;8.456;2023-08-20T05:53:08;1.80;;;1.70;;
11386;SDS011;5748;53.102;8.456;2023-08-20T05:55:35;2.00;;;1.80;;
11386;SDS011;5748;53.102;8.456;2023-08-20T05:58:02;2.13;;;1.87;;
11386;SDS011;5748;53.102;8.456;2023-08-20T06:00:29;2.00;;;1.80;;
11386;SDS011;5748;53.102;8.456;2023-08-20T06:02:56;2.00;;;1.80;;
11386;SDS011;5748;53.102;8.456;2023-08-20T06:05:24;2.50;;;2.10;;
11386;SDS011;5748;53.102;8.456;2023-08-20T06:07:52;4.03;;;2.40;;
11386;SDS011;5748;53.102;8.456;2023-08-20T06:10:18;2.40;;;2.20;;
11386;SDS011;5748;53.102;8.456;2023-08-20T06:12:45;2.33;;;2.10;;
11386;SDS011;5748;53.102;8.456;2023-08-20T06:15:13;2.07;;;1.90;;
11386;SDS011;5748;53.102;8.456;2023-08-20T06:17:40;2.33;;;1.88;;
11386;SDS011;5748;53.102;8.456;2023-08-20T06:20:07;2.58;;;1.98;;
11386;SDS011;5748;53.102;8.456;2023-08-20T06:22:38;2.10;;;1.70;;
11386;SDS011;5748;53.102;8.456;2023-08-20T06:25:05;1.90;;;1.80;;
11386;SDS011;5748;53.102;8.456;2023-08-20T06:27:33;2.00;;;1.63;;
11386;SDS011;5748;53.102;8.456;2023-08-20T06:30:00;2.00;;;1.80;;
11386;SDS011;5748;53.102;8.456;2023-08-20T06:32:26;2.40;;;2.17;;
11386;SDS011;5748;53.102;8.456;2023-08-20T06:34:53;2.30;;;2.10;;
11386;SDS011;5748;53.102;8.456;2023-08-20T06:37:20;2.70;;;1.80;;
11386;SDS011;5748;53.102;8.456;2023-08-20T06:39:48;1.90;;;1.80;;
11386;SDS011;5748;53.102;8.456;2023-08-20T06:42:15;2.47;;;2.05;;
11386;SDS011;5748;53.102;8.456;2023-08-20T06:44:42;2.33;;;2.00;;
11386;SDS011;5748;53.102;8.456;2023-08-20T06:47:09;2.05;;;1.85;;
11386;SDS011;5748;53.102;8.456;2023-08-20T06:49:36;2.30;;;2.10;;
11386;SDS011;5748;53.102;8.456;2023-08-20T06:52:03;2.28;;;2.08;;
11386;SDS011;5748;53.102;8.456;2023-08-20T06:54:30;1.67;;;1.58;;
11386;SDS011;5748;53.102;8.456;2023-08-20T06:56:59;2.30;;;2.10;;
11386;SDS011;5748;53.102;8.456;2023-08-20T06:59:26;2.20;;;2.00;;
11386;SDS011;5748;53.102;8.456;2023-08-20T07:01:53;1.73;;;1.63;;
11386;SDS011;5748;53.102;8.456;2023-08-20T07:04:20;2.00;;;1.80;;
11386;SDS011;5748;53.102;8.456;2023-08-20T07:06:46;2.03;;;1.80;;
11386;SDS011;5748;53.102;8.456;2023-08-20T07:09:13;2.30;;;2.05;;
11386;SDS011;5748;53.102;8.456;2023-08-20T07:11:41;1.65;;;1.48;;
11386;SDS011;5748;53.102;8.456;2023-08-20T07:14:09;1.98;;;1.77;;
11386;SDS011;5748;53.102;8.456;2023-08-20T07:16:36;2.00;;;1.83;;
11386;SDS011;5748;53.102;8.456;2023-08-20T07:19:03;1.70;;;1.60;;
11386;SDS011;5748;53.102;8.456;2023-08-20T07:21:30;1.75;;;1.40;;
11386;SDS011;5748;53.102;8.456;2023-08-20T07:23:57;1.60;;;1.50;;
11386;SDS011;5748;53.102;8.456;2023-08-20T07:26:24;2.05;;;1.55;;
11386;SDS011;5748;53.102;8.456;2023-08-20T07:28:50;1.50;;;1.40;;
11386;SDS011;5748;53.102;8.456;2023-08-20T07:31:26;1.25;;;1.15;;
11386;SDS011;5748;53.102;8.456;2023-08-20T07:33:55;1.70;;;1.60;;
11386;SDS011;5748;53.102;8.456;2023-08-20T07:36:23;1.50;;;1.38;;
11386;SDS011;5748;53.102;8.456;2023-08-20T07:38:52;2.92;;;1.50;;
11386;SDS011;5748;53.102;8.456;2023-08-20T07:41:20;2.08;;;1.50;;
11386;SDS011;5748;53.102;8.456;2023-08-20T07:43:48;1.98;;;1.45;;
11386;SDS011;5748;53.102;8.456;2023-08-20T07:46:15;1.40;;;1.30;;
11386;SDS011;5748;53.102;8.456;2023-08-20T07:48:44;5.00;;;2.15;;
11386;SDS011;5748;53.102;8.456;2023-08-20T07:51:11;2.08;;;1.30;;
11386;SDS011;5748;53.102;8.456;2023-08-20T07:53:38;1.98;;;1.75;;
11386;SDS011;5748;53.102;8.456;2023-08-20T07:56:05;2.33;;;1.90;;
11386;SDS011;5748;53.102;8.456;2023-08-20T07:58:32;2.67;;;1.50;;
11386;SDS011;5748;53.102;8.456;2023-08-20T08:00:59;2.72;;;1.80;;
11386;SDS011;5748;53.102;8.456;2023-08-20T08:03:26;2.30;;;1.70;;
11386;SDS011;5748;53.102;8.456;2023-08-20T08:05:54;3.15;;;1.60;;
11386;SDS011;5748;53.102;8.456;2023-08-20T08:08:21;1.88;;;1.60;;
11386;SDS011;5748;53.102;8.456;2023-08-20T08:10:49;3.13;;;1.80;;
11386;SDS011;5748;53.102;8.456;2023-08-20T08:13:19;2.40;;;1.70;;
11386;SDS011;5748;53.102;8.456;2023-08-20T08:15:47;1.55;;;1.30;;
11386;SDS011;5748;53.102;8.456;2023-08-20T08:18:15;2.00;;;1.65;;
11386;SDS011;5748;53.102;8.456;2023-08-20T08:20:42;3.50;;;2.22;;
11386;SDS011;5748;53.102;8.456;2023-08-20T08:23:10;2.30;;;2.10;;
11386;SDS011;5748;53.102;8.456;2023-08-20T08:25:37;2.33;;;2.13;;
11386;SDS011;5748;53.102;8.456;2023-08-20T08:28:04;2.13;;;1.70;;
11386;SDS011;5748;53.102;8.456;2023-08-20T08:30:32;3.60;;;1.70;;
11386;SDS011;5748;53.102;8.456;2023-08-20T08:32:59;1.60;;;1.50;;
11386;SDS011;5748;53.102;8.456;2023-08-20T08:35:25;1.83;;;1.52;;
11386;SDS011;5748;53.102;8.456;2023-08-20T08:37:52;2.58;;;1.58;;
11386;SDS011;5748;53.102;8.456;2023-08-20T08:40:21;2.03;;;1.80;;
11386;SDS011;5748;53.102;8.456;2023-08-20T08:42:49;2.33;;;1.60;;
11386;SDS011;5748;53.102;8.456;2023-08-20T08:45:17;1.80;;;1.60;;
11386;SDS011;5748;53.102;8.456;2023-08-20T08:47:45;2.13;;;1.73;;
11386;SDS011;5748;53.102;8.456;2023-08-20T08:50:13;2.45;;;1.80;;
11386;SDS011;5748;53.102;8.456;2023-08-20T08:52:41;2.58;;;1.90;;
11386;SDS011;5748;53.102;8.456;2023-08-20T08:55:08;2.17;;;1.80;;
11386;SDS011;5748;53.102;8.456;2023-08-20T08:57:36;2.17;;;1.60;;
11386;SDS011;5748;53.102;8.456;2023-08-20T09:00:04;2.83;;;1.90;;
11386;SDS011;5748;53.102;8.456;2023-08-20T09:02:33;2.28;;;1.50;;
11386;SDS011;5748;53.102;8.456;2023-08-20T09:05:00;1.95;;;1.17;;
11386;SDS011;5748;53.102;8.456;2023-08-20T09:07:27;4.05;;;1.67;;
11386;SDS011;5748;53.102;8.456;2023-08-20T09:09:57;1.67;;;1.58;;
11386;SDS011;5748;53.102;8.456;2023-08-20T09:12:25;1.80;;;1.50;;
11386;SDS011;5748;53.102;8.456;2023-08-20T09:14:54;2.00;;;1.40;;
11386;SDS011;5748;53.102;8.456;2023-08-20T09:17:25;1.20;;;1.10;;
11386;SDS011;5748;53.102;8.456;2023-08-20T09:19:53;1.67;;;1.58;;
11386;SDS011;5748;53.102;8.456;2023-08-20T09:22:22;1.88;;;1.48;;
11386;SDS011;5748;53.102;8.456;2023-08-20T09:24:53;2.60;;;1.73;;
11386;SDS011;5748;53.102;8.456;2023-08-20T09:27:22;1.67;;;1.40;;
11386;SDS011;5748;53.102;8.456;2023-08-20T09:29:49;1.52;;;1.20;;
11386;SDS011;5748;53.102;8.456;2023-08-20T09:32:20;1.48;;;1.38;;
11386;SDS011;5748;53.102;8.456;2023-08-20T09:34:48;1.95;;;1.45;;
11386;SDS011;5748;53.102;8.456;2023-08-20T09:37:18;3.47;;;1.60;;
11386;SDS011;5748;53.102;8.456;2023-08-20T09:39:46;2.05;;;1.60;;
11386;SDS011;5748;53.102;8.456;2023-08-20T09:42:13;1.70;;;1.35;;
11386;SDS011;5748;53.102;8.456;2023-08-20T09:44:42;2.75;;;1.50;;
11386;SDS011;5748;53.102;8.456;2023-08-20T09:47:11;2.22;;;1.52;;
11386;SDS011;5748;53.102;8.456;2023-08-20T09:49:41;1.23;;;1.13;;
11386;SDS011;5748;53.102;8.456;2023-08-20T09:52:09;1.48;;;1.35;;
11386;SDS011;5748;53.102;8.456;2023-08-20T09:54:50;1.90;;;1.20;;
11386;SDS011;5748;53.102;8.456;2023-08-20T09:57:30;1.50;;;1.30;;
11386;SDS011;5748;53.102;8.456;2023-08-20T10:00:00;1.60;;;1.30;;
11386;SDS011;5748;53.102;8.456;2023-08-20T10:02:30;1.60;;;1.50;;
11386;SDS011;5748;53.102;8.456;2023-08-20T10:05:00;1.15;;;1.05;;
11386;SDS011;5748;53.102;8.456;2023-08-20T10:07:28;2.15;;;1.40;;
11386;SDS011;5748;53.102;8.456;2023-08-20T10:09:57;1.90;;;1.15;;
11386;SDS011;5748;53.102;8.456;2023-08-20T10:12:26;1.67;;;1.25;;
11386;SDS011;5748;53.102;8.456;2023-08-20T10:14:53;2.65;;;1.58;;
11386;SDS011;5748;53.102;8.456;2023-08-20T10:17:22;1.45;;;1.30;;
11386;SDS011;5748;53.102;8.456;2023-08-20T10:19:50;1.23;;;1.10;;
11386;SDS011;5748;53.102;8.456;2023-08-20T10:22:20;1.80;;;1.35;;
11386;SDS011;5748;53.102;8.456;2023-08-20T10:24:47;1.50;;;1.38;;
11386;SDS011;5748;53.102;8.456;2023-08-20T10:27:25;2.05;;;1.38;;
11386;SDS011;5748;53.102;8.456;2023-08-20T10:29:55;2.42;;;1.50;;
11386;SDS011;5748;53.102;8.456;2023-08-20T10:35:12;1.50;;;1.30;;
11386;SDS011;5748;53.102;8.456;2023-08-20T10:38:06;2.67;;;1.70;;
11386;SDS011;5748;53.102;8.456;2023-08-20T10:40:53;1.88;;;1.55;;
11386;SDS011;5748;53.102;8.456;2023-08-20T10:43:28;2.85;;;1.80;;
11386;SDS011;5748;53.102;8.456;2023-08-20T10:46:13;2.25;;;1.50;;
11386;SDS011;5748;53.102;8.456;2023-08-20T10:48:46;2.28;;;1.55;;
11386;SDS011;5748;53.102;8.456;2023-08-20T10:51:15;1.30;;;1.20;;
11386;SDS011;5748;53.102;8.456;2023-08-20T10:54:03;1.63;;;1.50;;
11386;SDS011;5748;53.102;8.456;2023-08-20T10:56:42;1.30;;;1.20;;
11386;SDS011;5748;53.102;8.456;2023-08-20T10:59:13;1.10;;;1.00;;
11386;SDS011;5748;53.102;8.456;2023-08-20T11:01:45;1.77;;;1.38;;
11386;SDS011;5748;53.102;8.456;2023-08-20T11:04:13;1.35;;;1.25;;
11386;SDS011;5748;53.102;8.456;2023-08-20T11:06:43;2.40;;;1.50;;
11386;SDS011;5748;53.102;8.456;2023-08-20T11:09:11;2.78;;;1.40;;
11386;SDS011;5748;53.102;8.456;2023-08-20T11:11:39;2.03;;;1.60;;
11386;SDS011;5748;53.102;8.456;2023-08-20T11:14:07;2.10;;;1.60;;
11386;SDS011;5748;53.102;8.456;2023-08-20T11:16:39;2.38;;;1.58;;
11386;SDS011;5748;53.102;8.456;2023-08-20T11:19:07;2.10;;;1.45;;
11386;SDS011;5748;53.102;8.456;2023-08-20T11:21:34;1.58;;;1.38;;
11386;SDS011;5748;53.102;8.456;2023-08-20T11:24:02;1.55;;;1.10;;
11386;SDS011;5748;53.102;8.456;2023-08-20T11:26:31;1.45;;;1.27;;
11386;SDS011;5748;53.102;8.456;2023-08-20T11:28:59;1.65;;;1.25;;
11386;SDS011;5748;53.102;8.456;2023-08-20T11:31:26;1.42;;;1.20;;
11386;SDS011;5748;53.102;8.456;2023-08-20T11:33:53;1.35;;;1.20;;
11386;SDS011;5748;53.102;8.456;2023-08-20T11:36:22;1.27;;;1.17;;
11386;SDS011;5748;53.102;8.456;2023-08-20T11:38:50;1.50;;;1.40;;
11386;SDS011;5748;53.102;8.456;2023-08-20T11:41:17;1.30;;;1.20;;
11386;SDS011;5748;53.102;8.456;2023-08-20T11:43:45;1.40;;;1.30;;
11386;SDS011;5748;53.102;8.456;2023-08-20T11:46:12;1.77;;;1.20;;
11386;SDS011;5748;53.102;8.456;2023-08-20T11:51:26;1.50;;;1.38;;
11386;SDS011;5748;53.102;8.456;2023-08-20T11:53:53;1.77;;;1.30;;
11386;SDS011;5748;53.102;8.456;2023-08-20T11:56:21;2.40;;;1.75;;
11386;SDS011;5748;53.102;8.456;2023-08-20T11:58:50;2.30;;;1.48;;
11386;SDS011;5748;53.102;8.456;2023-08-20T12:01:18;1.63;;;1.45;;
11386;SDS011;5748;53.102;8.456;2023-08-20T12:03:45;1.63;;;1.30;;
11386;SDS011;5748;53.102;8.456;2023-08-20T12:06:18;2.33;;;1.20;;
11386;SDS011;5748;53.102;8.456;2023-08-20T12:08:49;1.63;;;1.52;;
11386;SDS011;5748;53.102;8.456;2023-08-20T12:11:16;1.40;;;1.30;;
11386;SDS011;5748;53.102;8.456;2023-08-20T12:13:43;1.40;;;1.30;;
11386;SDS011;5748;53.102;8.456;2023-08-20T12:16:11;2.30;;;1.38;;
11386;SDS011;5748;53.102;8.456;2023-08-20T12:18:38;1.50;;;1.20;;
11386;SDS011;5748;53.102;8.456;2023-08-20T12:21:05;1.75;;;1.38;;
11386;SDS011;5748;53.102;8.456;2023-08-20T12:23:32;1.58;;;1.40;;
11386;SDS011;5748;53.102;8.456;2023-08-20T12:25:59;1.30;;;1.10;;
11386;SDS011;5748;53.102;8.456;2023-08-20T12:28:26;1.50;;;1.35;;
11386;SDS011;5748;53.102;8.456;2023-08-20T12:30:53;1.52;;;1.38;;
11386;SDS011;5748;53.102;8.456;2023-08-20T12:33:21;2.15;;;1.33;;
11386;SDS011;5748;53.102;8.456;2023-08-20T12:35:49;1.20;;;1.10;;
11386;SDS011;5748;53.102;8.456;2023-08-20T12:38:15;1.10;;;1.00;;
11386;SDS011;5748;53.102;8.456;2023-08-20T12:40:42;1.50;;;1.00;;
11386;SDS011;5748;53.102;8.456;2023-08-20T12:43:09;1.20;;;1.10;;
11386;SDS011;5748;53.102;8.456;2023-08-20T12:45:36;1.02;;;0.93;;
11386;SDS011;5748;53.102;8.456;2023-08-20T12:48:04;1.60;;;1.10;;
11386;SDS011;5748;53.102;8.456;2023-08-20T12:50:33;1.00;;;0.80;;
11386;SDS011;5748;53.102;8.456;2023-08-20T12:53:00;1.15;;;1.00;;
11386;SDS011;5748;53.102;8.456;2023-08-20T12:55:27;1.38;;;1.13;;
11386;SDS011;5748;53.102;8.456;2023-08-20T12:57:54;0.95;;;0.90;;
11386;SDS011;5748;53.102;8.456;2023-08-20T13:00:23;1.40;;;1.08;;
11386;SDS011;5748;53.102;8.456;2023-08-20T13:02:51;1.00;;;0.90;;
11386;SDS011;5748;53.102;8.456;2023-08-20T13:05:19;0.80;;;0.80;;
11386;SDS011;5748;53.102;8.456;2023-08-20T13:07:50;1.00;;;0.90;;
11386;SDS011;5748;53.102;8.456;2023-08-20T13:10:18;1.40;;;1.05;;
11386;SDS011;5748;53.102;8.456;2023-08-20T13:12:47;1.25;;;0.90;;
11386;SDS011;5748;53.102;8.456;2023-08-20T13:15:16;1.48;;;1.10;;
11386;SDS011;5748;53.102;8.456;2023-08-20T13:17:45;1.00;;;0.90;;
11386;SDS011;5748;53.102;8.456;2023-08-20T13:20:14;1.83;;;1.17;;
11386;SDS011;5748;53.102;8.456;2023-08-20T13:22:46;1.02;;;0.90;;
11386;SDS011;5748;53.102;8.456;2023-08-20T13:25:14;1.50;;;1.00;;
11386;SDS011;5748;53.102;8.456;2023-08-20T13:27:41;1.23;;;0.93;;
11386;SDS011;5748;53.102;8.456;2023-08-20T13:30:08;1.73;;;0.80;;
11386;SDS011;5748;53.102;8.456;2023-08-20T13:32:36;1.35;;;1.10;;
11386;SDS011;5748;53.102;8.456;2023-08-20T13:35:03;1.20;;;1.10;;
11386;SDS011;5748;53.102;8.456;2023-08-20T13:37:31;1.50;;;1.10;;
11386;SDS011;5748;53.102;8.456;2023-08-20T13:39:59;0.77;;;0.77;;
11386;SDS011;5748;53.102;8.456;2023-08-20T13:42:29;0.70;;;0.63;;
11386;SDS011;5748;53.102;8.456;2023-08-20T13:44:57;1.45;;;0.82;;
11386;SDS011;5748;53.102;8.456;2023-08-20T13:47:23;0.80;;;0.80;;
11386;SDS011;5748;53.102;8.456;2023-08-20T13:49:50;1.05;;;0.82;;
11386;SDS011;5748;53.102;8.456;2023-08-20T13:52:17;0.70;;;0.70;;
11386;SDS011;5748;53.102;8.456;2023-08-20T13:54:45;1.15;;;0.88;;
11386;SDS011;5748;53.102;8.456;2023-08-20T13:57:12;1.13;;;0.90;;
11386;SDS011;5748;53.102;8.456;2023-08-20T13:59:40;1.60;;;0.90;;
11386;SDS011;5748;53.102;8.456;2023-08-20T14:02:07;1.33;;;0.90;;
11386;SDS011;5748;53.102;8.456;2023-08-20T14:04:35;0.90;;;0.70;;
11386;SDS011;5748;53.102;8.456;2023-08-20T14:07:02;0.68;;;0.60;;
11386;SDS011;5748;53.102;8.456;2023-08-20T14:09:29;1.15;;;0.90;;
11386;SDS011;5748;53.102;8.456;2023-08-20T14:11:56;1.10;;;0.90;;
11386;SDS011;5748;53.102;8.456;2023-08-20T14:14:22;0.75;;;0.75;;
11386;SDS011;5748;53.102;8.456;2023-08-20T14:16:51;1.15;;;0.90;;
11386;SDS011;5748;53.102;8.456;2023-08-20T14:19:18;0.70;;;0.70;;
11386;SDS011;5748;53.102;8.456;2023-08-20T14:21:45;0.98;;;0.80;;
11386;SDS011;5748;53.102;8.456;2023-08-20T14:24:12;1.00;;;0.73;;
11386;SDS011;5748;53.102;8.456;2023-08-20T14:26:39;0.70;;;0.70;;
11386;SDS011;5748;53.102;8.456;2023-08-20T14:29:06;1.20;;;0.90;;
11386;SDS011;5748;53.102;8.456;2023-08-20T14:31:33;0.70;;;0.70;;
11386;SDS011;5748;53.102;8.456;2023-08-20T14:34:01;1.20;;;0.68;;
11386;SDS011;5748;53.102;8.456;2023-08-20T14:36:28;0.73;;;0.70;;
11386;SDS011;5748;53.102;8.456;2023-08-20T14:38:55;0.70;;;0.60;;
11386;SDS011;5748;53.102;8.456;2023-08-20T14:41:21;0.68;;;0.68;;
11386;SDS011;5748;53.102;8.456;2023-08-20T14:43:48;0.75;;;0.63;;
11386;SDS011;5748;53.102;8.456;2023-08-20T14:46:15;0.50;;;0.50;;
11386;SDS011;5748;53.102;8.456;2023-08-20T14:48:42;0.68;;;0.60;;
11386;SDS011;5748;53.102;8.456;2023-08-20T14:51:11;0.77;;;0.68;;
11386;SDS011;5748;53.102;8.456;2023-08-20T14:53:38;0.50;;;0.50;;
11386;SDS011;5748;53.102;8.456;2023-08-20T14:56:05;0.77;;;0.60;;
11386;SDS011;5748;53.102;8.456;2023-08-20T14:58:32;0.95;;;0.65;;
11386;SDS011;5748;53.102;8.456;2023-08-20T15:00:59;1.00;;;0.60;;
11386;SDS011;5748;53.102;8.456;2023-08-20T15:03:26;0.70;;;0.70;;
11386;SDS011;5748;53.102;8.456;2023-08-20T15:05:53;0.80;;;0.70;;
11386;SDS011;5748;53.102;8.456;2023-08-20T15:08:21;0.47;;;0.47;;
11386;SDS011;5748;53.102;8.456;2023-08-20T15:10:55;0.82;;;0.60;;
11386;SDS011;5748;53.102;8.456;2023-08-20T15:13:23;0.90;;;0.60;;
11386;SDS011;5748;53.102;8.456;2023-08-20T15:15:51;0.60;;;0.50;;